sensor_id;sensor_type;location;lat;lon;timestamp;pressure;altitude;pressure_sealevel;temperature;humidity
57847;BME280;43675;50.030;21.952;2023-12-20T00:01:06;98265.01;;;2.47;74.46
57847;BME280;43675;50.030;21.952;2023-12-20T00:03:43;98259.29;;;2.49;74.38
57847;BME280;43675;50.030;21.952;2023-12-20T00:06:10;98255.89;;;2.54;73.86
57847;BME280;43675;50.030;21.952;2023-12-20T00:08:40;98248.63;;;2.57;74.10
57847;BME280;43675;50.030;21.952;2023-12-20T00:11:07;98246.23;;;2.62;73.70
57847;BME280;43675;50.030;21.952;2023-12-20T00:13:33;98248.81;;;2.67;73.51
57847;BME280;43675;50.030;21.952;2023-12-20T00:16:00;98241.73;;;2.69;73.48
57847;BME280;43675;50.030;21.952;2023-12-20T00:18:27;98246.58;;;2.77;73.48
57847;BME280;43675;50.030;21.952;2023-12-20T00:20:54;98238.89;;;2.87;73.01
57847;BME280;43675;50.030;21.952;2023-12-20T00:23:21;98243.98;;;2.93;72.84
57847;BME280;43675;50.030;21.952;2023-12-20T00:25:48;98246.64;;;2.95;73.02
57847;BME280;43675;50.030;21.952;2023-12-20T00:28:14;98235.39;;;2.98;72.72
57847;BME280;43675;50.030;21.952;2023-12-20T00:30:41;98234.08;;;3.02;72.43
57847;BME280;43675;50.030;21.952;2023-12-20T00:33:08;98227.77;;;3.06;72.23
57847;BME280;43675;50.030;21.952;2023-12-20T00:35:39;98227.61;;;3.07;72.34
57847;BME280;43675;50.030;21.952;2023-12-20T00:38:06;98218.91;;;3.04;72.19
57847;BME280;43675;50.030;21.952;2023-12-20T00:40:33;98219.63;;;3.01;72.27
57847;BME280;43675;50.030;21.952;2023-12-20T00:43:00;98215.00;;;3.00;72.10
57847;BME280;43675;50.030;21.952;2023-12-20T00:45:27;98213.61;;;3.04;72.43
57847;BME280;43675;50.030;21.952;2023-12-20T00:47:54;98214.27;;;3.17;72.39
57847;BME280;43675;50.030;21.952;2023-12-20T00:50:27;98206.49;;;3.20;71.53
57847;BME280;43675;50.030;21.952;2023-12-20T00:52:57;98207.61;;;3.13;71.71
57847;BME280;43675;50.030;21.952;2023-12-20T00:55:24;98205.31;;;3.10;71.78
57847;BME280;43675;50.030;21.952;2023-12-20T00:57:53;98205.10;;;3.08;71.66
57847;BME280;43675;50.030;21.952;2023-12-20T01:00:32;98193.62;;;3.06;71.59
57847;BME280;43675;50.030;21.952;2023-12-20T01:03:06;98184.32;;;3.06;71.76
57847;BME280;43675;50.030;21.952;2023-12-20T01:05:37;98183.07;;;3.07;71.88
57847;BME280;43675;50.030;21.952;2023-12-20T01:08:04;98178.21;;;3.09;71.46
57847;BME280;43675;50.030;21.952;2023-12-20T01:10:31;98175.55;;;3.09;71.43
57847;BME280;43675;50.030;21.952;2023-12-20T01:12:58;98168.63;;;3.10;71.59
57847;BME280;43675;50.030;21.952;2023-12-20T01:15:25;98163.62;;;3.10;71.41
57847;BME280;43675;50.030;21.952;2023-12-20T01:17:52;98171.34;;;3.06;71.13
57847;BME280;43675;50.030;21.952;2023-12-20T01:20:19;98164.48;;;2.98;71.18
57847;BME280;43675;50.030;21.952;2023-12-20T01:22:51;98162.08;;;2.90;71.06
57847;BME280;43675;50.030;21.952;2023-12-20T01:25:28;98153.63;;;2.79;71.33
57847;BME280;43675;50.030;21.952;2023-12-20T01:27:56;98154.55;;;2.70;71.52
57847;BME280;43675;50.030;21.952;2023-12-20T01:30:22;98155.29;;;2.64;71.65
57847;BME280;43675;50.030;21.952;2023-12-20T01:32:49;98148.77;;;2.54;71.94
57847;BME280;43675;50.030;21.952;2023-12-20T01:35:16;98148.88;;;2.47;72.25
57847;BME280;43675;50.030;21.952;2023-12-20T01:37:43;98152.48;;;2.41;72.64
57847;BME280;43675;50.030;21.952;2023-12-20T01:40:10;98143.74;;;2.33;72.38
57847;BME280;43675;50.030;21.952;2023-12-20T01:42:37;98141.05;;;2.31;72.82
57847;BME280;43675;50.030;21.952;2023-12-20T01:45:05;98137.36;;;2.32;72.76
57847;BME280;43675;50.030;21.952;2023-12-20T01:47:32;98138.31;;;2.29;73.13
57847;BME280;43675;50.030;21.952;2023-12-20T01:50:00;98143.59;;;2.27;73.20
57847;BME280;43675;50.030;21.952;2023-12-20T01:52:27;98137.89;;;2.23;73.11
57847;BME280;43675;50.030;21.952;2023-12-20T01:54:57;98137.17;;;2.20;73.19
57847;BME280;43675;50.030;21.952;2023-12-20T01:57:28;98134.65;;;2.22;73.16
57847;BME280;43675;50.030;21.952;2023-12-20T01:59:56;98132.11;;;2.22;73.07
57847;BME280;43675;50.030;21.952;2023-12-20T02:02:26;98129.45;;;2.18;73.24
57847;BME280;43675;50.030;21.952;2023-12-20T02:05:07;98122.68;;;2.14;73.26
57847;BME280;43675;50.030;21.952;2023-12-20T02:07:35;98115.61;;;2.13;73.34
57847;BME280;43675;50.030;21.952;2023-12-20T02:10:03;98111.20;;;2.11;73.60
57847;BME280;43675;50.030;21.952;2023-12-20T02:12:40;98113.67;;;2.07;73.53
57847;BME280;43675;50.030;21.952;2023-12-20T02:15:07;98111.48;;;2.01;73.47
57847;BME280;43675;50.030;21.952;2023-12-20T02:17:54;98110.62;;;1.95;73.69
57847;BME280;43675;50.030;21.952;2023-12-20T02:20:21;98106.08;;;1.90;74.13
57847;BME280;43675;50.030;21.952;2023-12-20T02:22:48;98106.80;;;2.02;74.05
57847;BME280;43675;50.030;21.952;2023-12-20T02:25:15;98103.23;;;2.13;73.73
57847;BME280;43675;50.030;21.952;2023-12-20T02:27:42;98102.63;;;2.14;73.66
57847;BME280;43675;50.030;21.952;2023-12-20T02:30:10;98098.23;;;2.05;73.62
57847;BME280;43675;50.030;21.952;2023-12-20T02:32:37;98092.20;;;1.96;74.03
57847;BME280;43675;50.030;21.952;2023-12-20T02:35:04;98093.86;;;1.89;74.00
57847;BME280;43675;50.030;21.952;2023-12-20T02:37:41;98094.31;;;1.83;74.24
57847;BME280;43675;50.030;21.952;2023-12-20T02:40:09;98096.77;;;1.80;74.28
57847;BME280;43675;50.030;21.952;2023-12-20T02:42:37;98094.61;;;1.78;74.18
57847;BME280;43675;50.030;21.952;2023-12-20T02:45:07;98096.69;;;1.73;74.36
57847;BME280;43675;50.030;21.952;2023-12-20T02:47:34;98094.02;;;1.69;74.42
57847;BME280;43675;50.030;21.952;2023-12-20T02:50:01;98092.24;;;1.68;74.66
57847;BME280;43675;50.030;21.952;2023-12-20T02:52:37;98088.42;;;1.65;74.60
57847;BME280;43675;50.030;21.952;2023-12-20T02:55:05;98083.47;;;1.64;74.70
57847;BME280;43675;50.030;21.952;2023-12-20T02:58:13;98078.50;;;1.63;74.65
57847;BME280;43675;50.030;21.952;2023-12-20T03:00:42;98073.68;;;1.63;74.81
57847;BME280;43675;50.030;21.952;2023-12-20T03:03:18;98069.35;;;1.64;74.63
57847;BME280;43675;50.030;21.952;2023-12-20T03:05:48;98068.02;;;1.60;74.75
57847;BME280;43675;50.030;21.952;2023-12-20T03:08:24;98061.37;;;1.58;75.13
57847;BME280;43675;50.030;21.952;2023-12-20T03:10:51;98056.52;;;1.56;75.12
57847;BME280;43675;50.030;21.952;2023-12-20T03:13:20;98052.56;;;1.55;75.07
57847;BME280;43675;50.030;21.952;2023-12-20T03:16:10;98059.54;;;1.54;75.27
57847;BME280;43675;50.030;21.952;2023-12-20T03:18:34;98060.60;;;1.56;75.22
57847;BME280;43675;50.030;21.952;2023-12-20T03:21:02;98054.46;;;1.57;75.03
57847;BME280;43675;50.030;21.952;2023-12-20T03:23:29;98054.88;;;1.57;75.18
57847;BME280;43675;50.030;21.952;2023-12-20T03:25:56;98059.08;;;1.69;75.14
57847;BME280;43675;50.030;21.952;2023-12-20T03:28:23;98056.79;;;1.81;74.77
57847;BME280;43675;50.030;21.952;2023-12-20T03:30:49;98064.16;;;1.89;74.42
57847;BME280;43675;50.030;21.952;2023-12-20T03:33:16;98061.59;;;1.92;74.17
57847;BME280;43675;50.030;21.952;2023-12-20T03:35:43;98064.34;;;1.80;74.36
57847;BME280;43675;50.030;21.952;2023-12-20T03:38:10;98069.27;;;1.67;74.71
57847;BME280;43675;50.030;21.952;2023-12-20T03:40:43;98070.05;;;1.55;74.73
57847;BME280;43675;50.030;21.952;2023-12-20T03:43:10;98071.25;;;1.46;75.09
57847;BME280;43675;50.030;21.952;2023-12-20T03:45:38;98072.93;;;1.39;75.11
57847;BME280;43675;50.030;21.952;2023-12-20T03:48:14;98066.91;;;1.31;75.15
57847;BME280;43675;50.030;21.952;2023-12-20T03:50:44;98069.14;;;1.25;75.53
57847;BME280;43675;50.030;21.952;2023-12-20T03:53:11;98069.50;;;1.21;75.64
57847;BME280;43675;50.030;21.952;2023-12-20T03:55:40;98067.42;;;1.16;75.63
57847;BME280;43675;50.030;21.952;2023-12-20T03:58:28;98060.54;;;1.11;75.92
57847;BME280;43675;50.030;21.952;2023-12-20T04:01:05;98060.80;;;1.07;76.01
57847;BME280;43675;50.030;21.952;2023-12-20T04:03:35;98053.48;;;1.05;75.85
57847;BME280;43675;50.030;21.952;2023-12-20T04:06:05;98058.77;;;1.03;76.11
57847;BME280;43675;50.030;21.952;2023-12-20T04:08:43;98053.87;;;0.99;76.12
57847;BME280;43675;50.030;21.952;2023-12-20T04:11:18;98057.34;;;0.96;76.20
57847;BME280;43675;50.030;21.952;2023-12-20T04:13:45;98058.59;;;0.95;76.27
57847;BME280;43675;50.030;21.952;2023-12-20T04:16:15;98053.16;;;0.94;76.23
57847;BME280;43675;50.030;21.952;2023-12-20T04:18:49;98057.45;;;0.91;76.09
57847;BME280;43675;50.030;21.952;2023-12-20T04:21:19;98058.61;;;0.90;76.36
57847;BME280;43675;50.030;21.952;2023-12-20T04:24:06;98064.63;;;0.89;76.42
57847;BME280;43675;50.030;21.952;2023-12-20T04:26:33;98068.02;;;0.86;76.45
57847;BME280;43675;50.030;21.952;2023-12-20T04:29:00;98066.78;;;0.87;76.54
57847;BME280;43675;50.030;21.952;2023-12-20T04:31:27;98065.42;;;0.83;76.55
57847;BME280;43675;50.030;21.952;2023-12-20T04:33:54;98072.46;;;0.80;76.70
57847;BME280;43675;50.030;21.952;2023-12-20T04:36:25;98071.59;;;0.77;76.68
57847;BME280;43675;50.030;21.952;2023-12-20T04:38:55;98069.50;;;0.73;76.94
57847;BME280;43675;50.030;21.952;2023-12-20T04:41:22;98074.55;;;0.72;76.91
57847;BME280;43675;50.030;21.952;2023-12-20T04:43:59;98069.90;;;0.70;77.00
57847;BME280;43675;50.030;21.952;2023-12-20T04:46:29;98064.80;;;0.68;76.98
57847;BME280;43675;50.030;21.952;2023-12-20T04:48:59;98061.70;;;0.67;77.18
57847;BME280;43675;50.030;21.952;2023-12-20T04:51:32;98056.30;;;0.67;77.36
57847;BME280;43675;50.030;21.952;2023-12-20T04:54:00;98051.27;;;0.68;77.37
57847;BME280;43675;50.030;21.952;2023-12-20T04:56:27;98044.77;;;0.68;77.25
57847;BME280;43675;50.030;21.952;2023-12-20T04:58:55;98044.98;;;0.67;77.30
57847;BME280;43675;50.030;21.952;2023-12-20T05:01:44;98041.29;;;0.66;77.41
57847;BME280;43675;50.030;21.952;2023-12-20T05:06:51;98042.54;;;0.69;77.42
57847;BME280;43675;50.030;21.952;2023-12-20T05:09:18;98040.96;;;0.65;77.55
57847;BME280;43675;50.030;21.952;2023-12-20T05:11:44;98047.11;;;0.64;77.75
57847;BME280;43675;50.030;21.952;2023-12-20T05:14:11;98052.29;;;0.63;77.76
57847;BME280;43675;50.030;21.952;2023-12-20T05:16:41;98051.05;;;0.65;77.79
57847;BME280;43675;50.030;21.952;2023-12-20T05:19:08;98052.17;;;0.67;77.87
57847;BME280;43675;50.030;21.952;2023-12-20T05:21:35;98047.16;;;0.72;77.87
57847;BME280;43675;50.030;21.952;2023-12-20T05:24:02;98041.05;;;0.87;77.91
57847;BME280;43675;50.030;21.952;2023-12-20T05:26:32;98043.52;;;0.95;77.47
57847;BME280;43675;50.030;21.952;2023-12-20T05:29:05;98031.09;;;0.92;77.47
57847;BME280;43675;50.030;21.952;2023-12-20T05:31:35;98027.34;;;0.91;77.62
57847;BME280;43675;50.030;21.952;2023-12-20T05:34:11;98021.95;;;0.94;77.57
57847;BME280;43675;50.030;21.952;2023-12-20T05:36:38;98026.89;;;0.97;77.50
57847;BME280;43675;50.030;21.952;2023-12-20T05:39:05;98025.52;;;1.03;77.60
57847;BME280;43675;50.030;21.952;2023-12-20T05:41:37;98023.88;;;1.11;77.39
57847;BME280;43675;50.030;21.952;2023-12-20T05:44:07;98025.77;;;1.21;77.19
57847;BME280;43675;50.030;21.952;2023-12-20T05:46:39;98020.98;;;1.30;77.04
57847;BME280;43675;50.030;21.952;2023-12-20T05:49:16;98018.02;;;1.41;76.80
57847;BME280;43675;50.030;21.952;2023-12-20T05:51:45;98021.13;;;1.50;76.43
57847;BME280;43675;50.030;21.952;2023-12-20T05:54:29;98021.52;;;1.57;76.08
57847;BME280;43675;50.030;21.952;2023-12-20T05:56:56;98021.50;;;1.65;75.72
57847;BME280;43675;50.030;21.952;2023-12-20T05:59:23;98016.18;;;1.71;75.64
57847;BME280;43675;50.030;21.952;2023-12-20T06:01:57;98015.19;;;1.77;75.36
57847;BME280;43675;50.030;21.952;2023-12-20T06:04:24;98014.22;;;1.82;75.01
57847;BME280;43675;50.030;21.952;2023-12-20T06:06:51;98008.75;;;1.89;75.26
57847;BME280;43675;50.030;21.952;2023-12-20T06:09:18;98010.70;;;1.96;74.77
57847;BME280;43675;50.030;21.952;2023-12-20T06:11:45;98007.53;;;2.02;74.82
57847;BME280;43675;50.030;21.952;2023-12-20T06:14:13;98006.42;;;2.10;74.41
57847;BME280;43675;50.030;21.952;2023-12-20T06:19:18;98005.52;;;2.28;73.78
57847;BME280;43675;50.030;21.952;2023-12-20T06:21:45;98005.35;;;2.46;73.19
57847;BME280;43675;50.030;21.952;2023-12-20T06:24:11;98004.38;;;2.64;72.77
57847;BME280;43675;50.030;21.952;2023-12-20T06:26:38;98010.41;;;2.80;72.18
57847;BME280;43675;50.030;21.952;2023-12-20T06:29:05;98010.75;;;2.86;71.50
57847;BME280;43675;50.030;21.952;2023-12-20T06:31:32;98013.22;;;2.83;71.59
57847;BME280;43675;50.030;21.952;2023-12-20T06:34:02;98011.55;;;2.82;71.33
57847;BME280;43675;50.030;21.952;2023-12-20T06:36:37;98007.14;;;2.80;71.18
57847;BME280;43675;50.030;21.952;2023-12-20T06:39:10;98008.38;;;2.78;70.82
57847;BME280;43675;50.030;21.952;2023-12-20T06:41:41;98009.06;;;2.80;71.13
57847;BME280;43675;50.030;21.952;2023-12-20T06:44:11;98007.61;;;2.81;70.79
57847;BME280;43675;50.030;21.952;2023-12-20T06:46:37;98004.52;;;2.84;70.58
57847;BME280;43675;50.030;21.952;2023-12-20T06:49:04;98000.56;;;2.99;70.20
57847;BME280;43675;50.030;21.952;2023-12-20T06:51:51;98002.96;;;3.04;69.83
57847;BME280;43675;50.030;21.952;2023-12-20T06:54:29;98006.16;;;3.02;69.70
57847;BME280;43675;50.030;21.952;2023-12-20T06:56:56;98001.61;;;3.04;69.45
57847;BME280;43675;50.030;21.952;2023-12-20T06:59:30;98008.49;;;3.05;69.47
57847;BME280;43675;50.030;21.952;2023-12-20T07:01:56;98013.18;;;3.06;69.51
57847;BME280;43675;50.030;21.952;2023-12-20T07:07:11;98007.16;;;3.04;69.44
57847;BME280;43675;50.030;21.952;2023-12-20T07:09:38;98016.86;;;3.12;69.34
57847;BME280;43675;50.030;21.952;2023-12-20T07:12:06;98021.52;;;3.13;69.42
57847;BME280;43675;50.030;21.952;2023-12-20T07:14:33;98023.20;;;3.13;69.31
57847;BME280;43675;50.030;21.952;2023-12-20T07:19:45;98021.17;;;3.19;69.10
57847;BME280;43675;50.030;21.952;2023-12-20T07:22:12;98022.98;;;3.21;69.07
57847;BME280;43675;50.030;21.952;2023-12-20T07:24:41;98028.16;;;3.22;68.85
57847;BME280;43675;50.030;21.952;2023-12-20T07:27:17;98032.16;;;3.24;68.62
57847;BME280;43675;50.030;21.952;2023-12-20T07:29:43;98044.42;;;3.29;68.60
57847;BME280;43675;50.030;21.952;2023-12-20T07:32:22;98046.55;;;3.40;68.15
57847;BME280;43675;50.030;21.952;2023-12-20T07:34:52;98044.93;;;3.40;67.84
57847;BME280;43675;50.030;21.952;2023-12-20T07:37:22;98045.30;;;3.41;67.91
57847;BME280;43675;50.030;21.952;2023-12-20T07:40:09;98043.48;;;3.42;68.16
57847;BME280;43675;50.030;21.952;2023-12-20T07:42:41;98042.48;;;3.44;68.17
57847;BME280;43675;50.030;21.952;2023-12-20T07:45:11;98042.55;;;3.48;68.21
57847;BME280;43675;50.030;21.952;2023-12-20T07:47:38;98044.64;;;3.50;68.04
57847;BME280;43675;50.030;21.952;2023-12-20T07:50:10;98048.61;;;3.51;67.88
57847;BME280;43675;50.030;21.952;2023-12-20T07:52:42;98045.98;;;3.52;67.81
57847;BME280;43675;50.030;21.952;2023-12-20T07:55:15;98042.13;;;3.54;67.58
57847;BME280;43675;50.030;21.952;2023-12-20T07:58:02;98036.92;;;3.56;67.62
57847;BME280;43675;50.030;21.952;2023-12-20T08:00:37;98040.95;;;3.61;67.82
57847;BME280;43675;50.030;21.952;2023-12-20T08:03:07;98045.50;;;3.66;67.46
57847;BME280;43675;50.030;21.952;2023-12-20T08:05:34;98046.81;;;3.71;67.44
57847;BME280;43675;50.030;21.952;2023-12-20T08:08:01;98045.91;;;3.75;67.64
57847;BME280;43675;50.030;21.952;2023-12-20T08:10:30;98040.80;;;3.76;67.42
57847;BME280;43675;50.030;21.952;2023-12-20T08:13:00;98026.23;;;3.76;67.39
57847;BME280;43675;50.030;21.952;2023-12-20T08:15:27;98025.90;;;3.75;67.44
57847;BME280;43675;50.030;21.952;2023-12-20T08:18:15;98029.78;;;3.76;67.52
57847;BME280;43675;50.030;21.952;2023-12-20T08:20:44;98026.37;;;3.77;67.76
57847;BME280;43675;50.030;21.952;2023-12-20T08:23:11;98013.24;;;3.83;67.66
57847;BME280;43675;50.030;21.952;2023-12-20T08:25:38;98013.05;;;3.92;67.03
57847;BME280;43675;50.030;21.952;2023-12-20T08:28:04;98010.98;;;3.94;67.38
57847;BME280;43675;50.030;21.952;2023-12-20T08:30:31;98008.89;;;3.97;67.19
57847;BME280;43675;50.030;21.952;2023-12-20T08:33:01;98009.45;;;3.99;67.17
57847;BME280;43675;50.030;21.952;2023-12-20T08:35:28;98014.39;;;3.99;67.19
57847;BME280;43675;50.030;21.952;2023-12-20T08:37:55;98024.51;;;3.98;66.96
57847;BME280;43675;50.030;21.952;2023-12-20T08:43:15;98018.27;;;4.00;67.34
57847;BME280;43675;50.030;21.952;2023-12-20T08:45:50;98012.17;;;4.02;67.15
57847;BME280;43675;50.030;21.952;2023-12-20T08:48:17;98012.07;;;4.04;67.04
57847;BME280;43675;50.030;21.952;2023-12-20T08:50:44;98008.89;;;4.05;66.87
57847;BME280;43675;50.030;21.952;2023-12-20T08:53:20;98016.02;;;4.08;67.05
57847;BME280;43675;50.030;21.952;2023-12-20T08:55:49;98019.69;;;4.11;67.02
57847;BME280;43675;50.030;21.952;2023-12-20T08:58:19;98017.73;;;4.14;66.71
57847;BME280;43675;50.030;21.952;2023-12-20T09:00:53;98019.83;;;4.17;66.41
57847;BME280;43675;50.030;21.952;2023-12-20T09:03:19;98017.49;;;4.20;66.68
57847;BME280;43675;50.030;21.952;2023-12-20T09:05:50;98015.08;;;4.33;66.93
57847;BME280;43675;50.030;21.952;2023-12-20T09:08:18;98014.45;;;4.32;66.46
57847;BME280;43675;50.030;21.952;2023-12-20T09:10:45;98010.58;;;4.27;66.41
57847;BME280;43675;50.030;21.952;2023-12-20T09:13:12;98007.59;;;4.24;66.35
57847;BME280;43675;50.030;21.952;2023-12-20T09:15:49;98006.67;;;4.20;66.36
57847;BME280;43675;50.030;21.952;2023-12-20T09:18:15;98004.50;;;4.16;66.63
57847;BME280;43675;50.030;21.952;2023-12-20T09:20:42;97999.11;;;4.16;66.30
57847;BME280;43675;50.030;21.952;2023-12-20T09:23:09;97993.56;;;4.13;66.46
57847;BME280;43675;50.030;21.952;2023-12-20T09:25:36;97995.23;;;4.12;66.70
57847;BME280;43675;50.030;21.952;2023-12-20T09:28:04;97996.83;;;4.13;66.43
57847;BME280;43675;50.030;21.952;2023-12-20T09:30:31;97995.98;;;4.14;66.71
57847;BME280;43675;50.030;21.952;2023-12-20T09:32:58;97991.39;;;4.16;66.67
57847;BME280;43675;50.030;21.952;2023-12-20T09:35:25;97984.73;;;4.32;66.47
57847;BME280;43675;50.030;21.952;2023-12-20T09:37:51;97984.33;;;4.35;66.44
57847;BME280;43675;50.030;21.952;2023-12-20T09:40:19;97983.64;;;4.33;66.56
57847;BME280;43675;50.030;21.952;2023-12-20T09:42:58;97979.41;;;4.35;66.44
57847;BME280;43675;50.030;21.952;2023-12-20T09:45:24;97977.63;;;4.36;66.46
57847;BME280;43675;50.030;21.952;2023-12-20T09:47:53;97980.19;;;4.40;66.56
57847;BME280;43675;50.030;21.952;2023-12-20T09:50:21;97974.38;;;4.49;66.53
57847;BME280;43675;50.030;21.952;2023-12-20T09:52:53;97974.75;;;4.50;66.22
57847;BME280;43675;50.030;21.952;2023-12-20T09:55:20;97971.58;;;4.53;66.22
57847;BME280;43675;50.030;21.952;2023-12-20T09:57:48;97969.41;;;4.52;66.36
57847;BME280;43675;50.030;21.952;2023-12-20T10:00:19;97963.25;;;4.53;66.24
57847;BME280;43675;50.030;21.952;2023-12-20T10:03:09;97967.20;;;4.50;66.35
57847;BME280;43675;50.030;21.952;2023-12-20T10:05:39;97970.89;;;4.47;66.63
57847;BME280;43675;50.030;21.952;2023-12-20T10:08:12;97963.83;;;4.47;66.59
57847;BME280;43675;50.030;21.952;2023-12-20T10:10:40;97961.33;;;4.46;66.57
57847;BME280;43675;50.030;21.952;2023-12-20T10:13:11;97962.06;;;4.47;66.85
57847;BME280;43675;50.030;21.952;2023-12-20T10:15:39;97969.66;;;4.47;66.67
57847;BME280;43675;50.030;21.952;2023-12-20T10:18:06;97973.64;;;4.49;66.44
57847;BME280;43675;50.030;21.952;2023-12-20T10:20:33;97970.13;;;4.49;66.53
57847;BME280;43675;50.030;21.952;2023-12-20T10:23:01;97965.70;;;4.50;66.31
57847;BME280;43675;50.030;21.952;2023-12-20T10:25:27;97965.50;;;4.58;66.18
57847;BME280;43675;50.030;21.952;2023-12-20T10:28:14;97960.91;;;4.57;66.10
57847;BME280;43675;50.030;21.952;2023-12-20T10:30:41;97960.64;;;4.55;66.16
57847;BME280;43675;50.030;21.952;2023-12-20T10:33:09;97959.42;;;4.55;66.28
57847;BME280;43675;50.030;21.952;2023-12-20T10:35:37;97953.63;;;4.56;66.16
57847;BME280;43675;50.030;21.952;2023-12-20T10:38:06;97960.30;;;4.58;66.21
57847;BME280;43675;50.030;21.952;2023-12-20T10:40:34;97958.21;;;4.58;66.05
57847;BME280;43675;50.030;21.952;2023-12-20T10:43:03;97956.88;;;4.56;66.49
57847;BME280;43675;50.030;21.952;2023-12-20T10:45:33;97953.12;;;4.55;66.76
57847;BME280;43675;50.030;21.952;2023-12-20T10:48:01;97950.27;;;4.55;67.07
57847;BME280;43675;50.030;21.952;2023-12-20T10:50:30;97948.06;;;4.61;67.19
57847;BME280;43675;50.030;21.952;2023-12-20T10:52:57;97946.91;;;4.78;67.28
57847;BME280;43675;50.030;21.952;2023-12-20T10:55:25;97939.35;;;4.97;67.30
57847;BME280;43675;50.030;21.952;2023-12-20T10:57:54;97936.70;;;5.06;67.38
57847;BME280;43675;50.030;21.952;2023-12-20T11:00:28;97944.93;;;5.16;67.52
57847;BME280;43675;50.030;21.952;2023-12-20T11:02:56;97946.92;;;5.26;67.49
57847;BME280;43675;50.030;21.952;2023-12-20T11:08:49;97947.61;;;5.11;67.73
57847;BME280;43675;50.030;21.952;2023-12-20T11:11:32;97946.92;;;5.07;68.09
57847;BME280;43675;50.030;21.952;2023-12-20T11:14:05;97939.47;;;5.01;68.43
57847;BME280;43675;50.030;21.952;2023-12-20T11:16:33;97938.42;;;4.98;68.38
57847;BME280;43675;50.030;21.952;2023-12-20T11:19:05;97929.80;;;4.98;68.81
57847;BME280;43675;50.030;21.952;2023-12-20T11:21:32;97923.36;;;5.08;69.00
57847;BME280;43675;50.030;21.952;2023-12-20T11:23:59;97927.39;;;5.16;68.85
57847;BME280;43675;50.030;21.952;2023-12-20T11:26:27;97924.81;;;5.21;68.76
57847;BME280;43675;50.030;21.952;2023-12-20T11:29:30;97921.09;;;5.18;68.87
57847;BME280;43675;50.030;21.952;2023-12-20T11:31:57;97924.24;;;5.11;69.20
57847;BME280;43675;50.030;21.952;2023-12-20T11:34:27;97922.96;;;5.08;69.82
57847;BME280;43675;50.030;21.952;2023-12-20T11:37:02;97922.98;;;5.04;69.81
57847;BME280;43675;50.030;21.952;2023-12-20T11:39:30;97913.44;;;5.01;70.08
57847;BME280;43675;50.030;21.952;2023-12-20T11:42:04;97913.86;;;5.06;70.22
57847;BME280;43675;50.030;21.952;2023-12-20T11:44:31;97911.69;;;5.04;70.48
57847;BME280;43675;50.030;21.952;2023-12-20T11:46:58;97907.09;;;5.09;70.46
57847;BME280;43675;50.030;21.952;2023-12-20T11:49:25;97904.77;;;5.08;70.29
57847;BME280;43675;50.030;21.952;2023-12-20T11:51:55;97904.42;;;4.97;70.58
57847;BME280;43675;50.030;21.952;2023-12-20T11:54:22;97901.20;;;4.85;71.01
57847;BME280;43675;50.030;21.952;2023-12-20T11:56:49;97902.83;;;4.75;71.30
57847;BME280;43675;50.030;21.952;2023-12-20T11:59:16;97900.17;;;4.67;71.39
57847;BME280;43675;50.030;21.952;2023-12-20T12:01:50;97898.66;;;4.54;71.78
57847;BME280;43675;50.030;21.952;2023-12-20T12:04:27;97896.66;;;4.41;71.87
57847;BME280;43675;50.030;21.952;2023-12-20T12:06:53;97895.48;;;4.30;72.08
57847;BME280;43675;50.030;21.952;2023-12-20T12:09:27;97900.40;;;4.22;72.34
57847;BME280;43675;50.030;21.952;2023-12-20T12:11:54;97897.98;;;4.13;72.61
57847;BME280;43675;50.030;21.952;2023-12-20T12:14:22;97897.95;;;4.07;72.79
57847;BME280;43675;50.030;21.952;2023-12-20T12:16:48;97895.27;;;4.01;73.12
57847;BME280;43675;50.030;21.952;2023-12-20T12:19:22;97891.85;;;4.09;72.96
57847;BME280;43675;50.030;21.952;2023-12-20T12:21:50;97892.54;;;4.18;72.99
57847;BME280;43675;50.030;21.952;2023-12-20T12:24:20;97889.59;;;4.18;73.09
57847;BME280;43675;50.030;21.952;2023-12-20T12:26:51;97885.50;;;4.07;73.42
57847;BME280;43675;50.030;21.952;2023-12-20T12:29:18;97893.35;;;3.98;73.96
57847;BME280;43675;50.030;21.952;2023-12-20T12:31:45;97892.70;;;3.92;73.95
57847;BME280;43675;50.030;21.952;2023-12-20T12:34:16;97892.63;;;3.84;74.37
57847;BME280;43675;50.030;21.952;2023-12-20T12:36:52;97888.77;;;3.77;74.78
57847;BME280;43675;50.030;21.952;2023-12-20T12:39:19;97890.83;;;3.70;75.04
57847;BME280;43675;50.030;21.952;2023-12-20T12:41:46;97888.64;;;3.68;75.34
57847;BME280;43675;50.030;21.952;2023-12-20T12:44:15;97885.67;;;3.65;75.43
57847;BME280;43675;50.030;21.952;2023-12-20T12:46:49;97889.23;;;3.62;75.99
57847;BME280;43675;50.030;21.952;2023-12-20T12:49:17;97889.23;;;3.59;76.11
57847;BME280;43675;50.030;21.952;2023-12-20T12:51:43;97887.64;;;3.58;76.31
57847;BME280;43675;50.030;21.952;2023-12-20T12:54:12;97884.42;;;3.62;76.21
57847;BME280;43675;50.030;21.952;2023-12-20T12:56:39;97889.09;;;3.56;76.62
57847;BME280;43675;50.030;21.952;2023-12-20T12:59:06;97889.53;;;3.51;76.56
57847;BME280;43675;50.030;21.952;2023-12-20T13:01:36;97885.88;;;3.48;76.78
57847;BME280;43675;50.030;21.952;2023-12-20T13:04:06;97889.67;;;3.44;76.94
57847;BME280;43675;50.030;21.952;2023-12-20T13:06:34;97890.56;;;3.41;77.33
57847;BME280;43675;50.030;21.952;2023-12-20T13:09:01;97888.79;;;3.39;77.79
57847;BME280;43675;50.030;21.952;2023-12-20T13:11:31;97889.48;;;3.38;77.75
57847;BME280;43675;50.030;21.952;2023-12-20T13:13:58;97895.58;;;3.35;77.86
57847;BME280;43675;50.030;21.952;2023-12-20T13:16:26;97895.12;;;3.34;78.00
57847;BME280;43675;50.030;21.952;2023-12-20T13:18:53;97897.61;;;3.35;78.16
57847;BME280;43675;50.030;21.952;2023-12-20T13:21:19;97892.14;;;3.36;78.27
57847;BME280;43675;50.030;21.952;2023-12-20T13:23:46;97896.89;;;3.33;78.07
57847;BME280;43675;50.030;21.952;2023-12-20T13:26:14;97893.76;;;3.30;78.25
57847;BME280;43675;50.030;21.952;2023-12-20T13:28:44;97890.27;;;3.25;78.30
57847;BME280;43675;50.030;21.952;2023-12-20T13:31:13;97887.97;;;3.22;78.65